DCA weather

Ronald Reagan Washington National Airport
Washington, District of Columbia, United States

Public forecast

Using degrees Fahrenheit for public forecast. Weather courtesy of forecast.io.

METAR (pilot weather report)

Retrieved 2018/12/13 02:52 UTC (26 minutes ago):

KDCA 130252Z 16007KT 10SM FEW095 BKN240 OVC250 03/M03 A3020 RMK AO2 SLP226 T00331033 50005

TAF (pilot weather forecast)

Forecast is more than 12 hours old.

Retrieved 2018/12/12 00:27 UTC (1 day ago):

TAF KDCA 122325Z 1300/1406 15005KT P6SM SCT080 BKN200 FM130500 16005KT P6SM BKN050 BKN130 FM131400 VRB04KT P6SM SCT050 BKN130 FM140200 VRB03KT P6SM BKN050